sensor_id;sensor_type;location;lat;lon;timestamp;P1;durP1;ratioP1;P2;durP2;ratioP2
52618;SDS011;38513;53.234;6.568;2023-08-06T00:00:27;18.58;;;13.23;;
52618;SDS011;38513;53.234;6.568;2023-08-06T00:02:53;19.58;;;11.75;;
52618;SDS011;38513;53.234;6.568;2023-08-06T00:05:19;18.35;;;12.10;;
52618;SDS011;38513;53.234;6.568;2023-08-06T00:07:48;17.80;;;12.52;;
52618;SDS011;38513;53.234;6.568;2023-08-06T00:10:15;17.23;;;11.75;;
52618;SDS011;38513;53.234;6.568;2023-08-06T00:12:41;17.30;;;11.43;;
52618;SDS011;38513;53.234;6.568;2023-08-06T00:15:08;17.02;;;11.48;;
52618;SDS011;38513;53.234;6.568;2023-08-06T00:17:34;20.70;;;12.15;;
52618;SDS011;38513;53.234;6.568;2023-08-06T00:20:01;16.83;;;11.70;;
52618;SDS011;38513;53.234;6.568;2023-08-06T00:22:40;19.55;;;11.82;;
52618;SDS011;38513;53.234;6.568;2023-08-06T00:25:06;15.87;;;11.43;;
52618;SDS011;38513;53.234;6.568;2023-08-06T00:27:32;18.67;;;11.68;;
52618;SDS011;38513;53.234;6.568;2023-08-06T00:29:59;17.08;;;11.63;;
52618;SDS011;38513;53.234;6.568;2023-08-06T00:32:25;17.27;;;11.32;;
52618;SDS011;38513;53.234;6.568;2023-08-06T00:34:52;17.90;;;11.73;;
52618;SDS011;38513;53.234;6.568;2023-08-06T00:37:20;17.13;;;11.50;;
52618;SDS011;38513;53.234;6.568;2023-08-06T00:39:49;17.15;;;11.57;;
52618;SDS011;38513;53.234;6.568;2023-08-06T00:42:15;17.83;;;11.63;;
52618;SDS011;38513;53.234;6.568;2023-08-06T00:44:45;16.92;;;11.30;;
52618;SDS011;38513;53.234;6.568;2023-08-06T00:47:12;17.95;;;12.15;;
52618;SDS011;38513;53.234;6.568;2023-08-06T00:49:38;16.25;;;10.80;;
52618;SDS011;38513;53.234;6.568;2023-08-06T00:52:05;16.67;;;12.07;;
52618;SDS011;38513;53.234;6.568;2023-08-06T00:54:31;18.30;;;12.15;;
52618;SDS011;38513;53.234;6.568;2023-08-06T00:56:57;16.47;;;12.00;;
52618;SDS011;38513;53.234;6.568;2023-08-06T00:59:24;17.13;;;11.45;;
52618;SDS011;38513;53.234;6.568;2023-08-06T01:01:54;17.50;;;11.43;;
52618;SDS011;38513;53.234;6.568;2023-08-06T01:04:27;17.30;;;10.90;;
52618;SDS011;38513;53.234;6.568;2023-08-06T01:07:03;16.85;;;11.70;;
52618;SDS011;38513;53.234;6.568;2023-08-06T01:12:18;18.55;;;11.88;;
52618;SDS011;38513;53.234;6.568;2023-08-06T01:15:00;16.52;;;11.40;;
52618;SDS011;38513;53.234;6.568;2023-08-06T01:17:31;15.68;;;11.38;;
52618;SDS011;38513;53.234;6.568;2023-08-06T01:19:57;17.42;;;11.50;;
52618;SDS011;38513;53.234;6.568;2023-08-06T01:22:24;18.27;;;11.90;;
52618;SDS011;38513;53.234;6.568;2023-08-06T01:24:50;23.15;;;13.05;;
52618;SDS011;38513;53.234;6.568;2023-08-06T01:29:52;20.50;;;13.10;;
52618;SDS011;38513;53.234;6.568;2023-08-06T01:32:22;21.67;;;13.20;;
52618;SDS011;38513;53.234;6.568;2023-08-06T01:34:49;21.70;;;13.27;;
52618;SDS011;38513;53.234;6.568;2023-08-06T01:37:16;18.42;;;13.15;;
52618;SDS011;38513;53.234;6.568;2023-08-06T01:39:42;19.40;;;13.03;;
52618;SDS011;38513;53.234;6.568;2023-08-06T01:42:08;20.63;;;14.20;;
52618;SDS011;38513;53.234;6.568;2023-08-06T01:44:35;19.63;;;14.05;;
52618;SDS011;38513;53.234;6.568;2023-08-06T01:47:01;21.13;;;13.32;;
52618;SDS011;38513;53.234;6.568;2023-08-06T01:49:27;19.80;;;14.63;;
52618;SDS011;38513;53.234;6.568;2023-08-06T01:51:54;20.02;;;14.25;;
52618;SDS011;38513;53.234;6.568;2023-08-06T01:54:20;19.10;;;14.33;;
52618;SDS011;38513;53.234;6.568;2023-08-06T01:56:46;20.05;;;14.40;;
52618;SDS011;38513;53.234;6.568;2023-08-06T01:59:12;18.65;;;14.25;;
52618;SDS011;38513;53.234;6.568;2023-08-06T02:01:38;19.92;;;14.93;;
52618;SDS011;38513;53.234;6.568;2023-08-06T02:04:04;23.35;;;15.68;;
52618;SDS011;38513;53.234;6.568;2023-08-06T02:06:31;24.15;;;15.10;;
52618;SDS011;38513;53.234;6.568;2023-08-06T02:08:57;20.30;;;14.98;;
52618;SDS011;38513;53.234;6.568;2023-08-06T02:11:23;23.58;;;15.43;;
52618;SDS011;38513;53.234;6.568;2023-08-06T02:13:49;20.55;;;14.82;;
52618;SDS011;38513;53.234;6.568;2023-08-06T02:16:15;21.30;;;15.30;;
52618;SDS011;38513;53.234;6.568;2023-08-06T02:18:41;21.48;;;15.77;;
52618;SDS011;38513;53.234;6.568;2023-08-06T02:21:07;22.45;;;15.20;;
52618;SDS011;38513;53.234;6.568;2023-08-06T02:23:33;24.10;;;15.57;;
52618;SDS011;38513;53.234;6.568;2023-08-06T02:26:00;21.13;;;15.00;;
52618;SDS011;38513;53.234;6.568;2023-08-06T02:28:27;22.95;;;16.17;;
52618;SDS011;38513;53.234;6.568;2023-08-06T02:30:54;21.95;;;16.15;;
52618;SDS011;38513;53.234;6.568;2023-08-06T02:33:20;24.30;;;17.50;;
52618;SDS011;38513;53.234;6.568;2023-08-06T02:35:46;25.35;;;17.42;;
52618;SDS011;38513;53.234;6.568;2023-08-06T02:38:12;25.52;;;16.92;;
52618;SDS011;38513;53.234;6.568;2023-08-06T02:40:44;25.35;;;17.55;;
52618;SDS011;38513;53.234;6.568;2023-08-06T02:43:11;22.70;;;16.92;;
52618;SDS011;38513;53.234;6.568;2023-08-06T02:45:37;23.90;;;17.88;;
52618;SDS011;38513;53.234;6.568;2023-08-06T02:48:03;27.60;;;17.48;;
52618;SDS011;38513;53.234;6.568;2023-08-06T02:50:29;23.38;;;16.90;;
52618;SDS011;38513;53.234;6.568;2023-08-06T02:52:55;24.17;;;17.25;;
52618;SDS011;38513;53.234;6.568;2023-08-06T02:55:22;24.02;;;17.58;;
52618;SDS011;38513;53.234;6.568;2023-08-06T02:57:48;26.15;;;18.15;;
52618;SDS011;38513;53.234;6.568;2023-08-06T03:00:14;25.02;;;17.52;;
52618;SDS011;38513;53.234;6.568;2023-08-06T03:02:40;26.92;;;18.15;;
52618;SDS011;38513;53.234;6.568;2023-08-06T03:05:06;25.17;;;17.25;;
52618;SDS011;38513;53.234;6.568;2023-08-06T03:07:32;26.02;;;17.70;;
52618;SDS011;38513;53.234;6.568;2023-08-06T03:10:01;24.92;;;16.23;;
52618;SDS011;38513;53.234;6.568;2023-08-06T03:12:27;23.88;;;16.27;;
52618;SDS011;38513;53.234;6.568;2023-08-06T03:14:53;21.65;;;15.70;;
52618;SDS011;38513;53.234;6.568;2023-08-06T03:17:19;21.30;;;15.10;;
52618;SDS011;38513;53.234;6.568;2023-08-06T03:19:45;24.05;;;15.93;;
52618;SDS011;38513;53.234;6.568;2023-08-06T03:22:11;20.83;;;15.57;;
52618;SDS011;38513;53.234;6.568;2023-08-06T03:24:38;21.70;;;14.85;;
52618;SDS011;38513;53.234;6.568;2023-08-06T03:27:04;23.40;;;15.82;;
52618;SDS011;38513;53.234;6.568;2023-08-06T03:29:30;20.13;;;14.93;;
52618;SDS011;38513;53.234;6.568;2023-08-06T03:31:56;21.20;;;15.15;;
52618;SDS011;38513;53.234;6.568;2023-08-06T03:34:22;21.50;;;14.80;;
52618;SDS011;38513;53.234;6.568;2023-08-06T03:36:48;21.33;;;14.50;;
52618;SDS011;38513;53.234;6.568;2023-08-06T03:39:15;20.05;;;14.30;;
52618;SDS011;38513;53.234;6.568;2023-08-06T03:41:41;21.92;;;15.18;;
52618;SDS011;38513;53.234;6.568;2023-08-06T03:44:07;20.87;;;14.27;;
52618;SDS011;38513;53.234;6.568;2023-08-06T03:46:33;19.92;;;14.80;;
52618;SDS011;38513;53.234;6.568;2023-08-06T03:49:02;18.63;;;14.68;;
52618;SDS011;38513;53.234;6.568;2023-08-06T03:51:28;19.03;;;14.63;;
52618;SDS011;38513;53.234;6.568;2023-08-06T03:53:54;19.55;;;14.60;;
52618;SDS011;38513;53.234;6.568;2023-08-06T03:56:20;19.10;;;14.43;;
52618;SDS011;38513;53.234;6.568;2023-08-06T03:58:46;19.75;;;14.30;;
52618;SDS011;38513;53.234;6.568;2023-08-06T04:01:13;20.48;;;15.20;;
52618;SDS011;38513;53.234;6.568;2023-08-06T04:03:39;22.67;;;14.77;;
52618;SDS011;38513;53.234;6.568;2023-08-06T04:06:05;21.83;;;15.93;;
52618;SDS011;38513;53.234;6.568;2023-08-06T04:08:32;19.88;;;14.57;;
52618;SDS011;38513;53.234;6.568;2023-08-06T04:10:58;21.00;;;14.45;;
52618;SDS011;38513;53.234;6.568;2023-08-06T04:13:24;21.15;;;14.68;;
52618;SDS011;38513;53.234;6.568;2023-08-06T04:15:50;21.75;;;14.32;;
52618;SDS011;38513;53.234;6.568;2023-08-06T04:18:16;20.00;;;14.85;;
52618;SDS011;38513;53.234;6.568;2023-08-06T04:20:46;21.75;;;14.68;;
52618;SDS011;38513;53.234;6.568;2023-08-06T04:23:14;20.60;;;15.10;;
52618;SDS011;38513;53.234;6.568;2023-08-06T04:25:43;20.02;;;14.48;;
52618;SDS011;38513;53.234;6.568;2023-08-06T04:28:09;20.10;;;13.88;;
52618;SDS011;38513;53.234;6.568;2023-08-06T04:30:36;19.63;;;14.43;;
52618;SDS011;38513;53.234;6.568;2023-08-06T04:33:02;19.45;;;13.27;;
52618;SDS011;38513;53.234;6.568;2023-08-06T04:35:28;20.25;;;13.43;;
52618;SDS011;38513;53.234;6.568;2023-08-06T04:37:55;17.95;;;13.18;;
52618;SDS011;38513;53.234;6.568;2023-08-06T04:40:21;18.10;;;13.23;;
52618;SDS011;38513;53.234;6.568;2023-08-06T04:42:47;19.33;;;13.10;;
52618;SDS011;38513;53.234;6.568;2023-08-06T04:45:13;18.02;;;13.30;;
52618;SDS011;38513;53.234;6.568;2023-08-06T04:47:39;19.10;;;13.68;;
52618;SDS011;38513;53.234;6.568;2023-08-06T04:50:06;17.38;;;13.35;;
52618;SDS011;38513;53.234;6.568;2023-08-06T04:52:32;18.70;;;13.00;;
52618;SDS011;38513;53.234;6.568;2023-08-06T04:54:58;18.88;;;12.45;;
52618;SDS011;38513;53.234;6.568;2023-08-06T04:57:27;17.02;;;12.73;;
52618;SDS011;38513;53.234;6.568;2023-08-06T04:59:53;17.93;;;13.27;;
52618;SDS011;38513;53.234;6.568;2023-08-06T05:02:20;18.45;;;13.32;;
52618;SDS011;38513;53.234;6.568;2023-08-06T05:04:46;17.92;;;13.57;;
52618;SDS011;38513;53.234;6.568;2023-08-06T05:07:12;18.35;;;12.70;;
52618;SDS011;38513;53.234;6.568;2023-08-06T05:09:38;18.17;;;13.30;;
52618;SDS011;38513;53.234;6.568;2023-08-06T05:12:04;19.35;;;14.30;;
52618;SDS011;38513;53.234;6.568;2023-08-06T05:14:31;34.20;;;13.63;;
52618;SDS011;38513;53.234;6.568;2023-08-06T05:16:57;19.70;;;14.30;;
52618;SDS011;38513;53.234;6.568;2023-08-06T05:19:23;19.98;;;13.38;;
52618;SDS011;38513;53.234;6.568;2023-08-06T05:21:49;17.65;;;12.48;;
52618;SDS011;38513;53.234;6.568;2023-08-06T05:24:15;19.10;;;13.13;;
52618;SDS011;38513;53.234;6.568;2023-08-06T05:26:41;20.55;;;13.73;;
52618;SDS011;38513;53.234;6.568;2023-08-06T05:29:11;18.30;;;13.65;;
52618;SDS011;38513;53.234;6.568;2023-08-06T05:31:37;19.02;;;13.65;;
52618;SDS011;38513;53.234;6.568;2023-08-06T05:34:04;17.77;;;12.52;;
52618;SDS011;38513;53.234;6.568;2023-08-06T05:36:32;18.83;;;13.30;;
52618;SDS011;38513;53.234;6.568;2023-08-06T05:38:58;17.60;;;13.50;;
52618;SDS011;38513;53.234;6.568;2023-08-06T05:41:25;17.40;;;12.57;;
52618;SDS011;38513;53.234;6.568;2023-08-06T05:43:51;18.88;;;13.65;;
52618;SDS011;38513;53.234;6.568;2023-08-06T05:46:17;18.73;;;13.48;;
52618;SDS011;38513;53.234;6.568;2023-08-06T05:48:43;22.65;;;13.73;;
52618;SDS011;38513;53.234;6.568;2023-08-06T05:51:09;18.13;;;13.82;;
52618;SDS011;38513;53.234;6.568;2023-08-06T05:53:37;18.38;;;12.95;;
52618;SDS011;38513;53.234;6.568;2023-08-06T05:56:03;18.40;;;12.80;;
52618;SDS011;38513;53.234;6.568;2023-08-06T05:58:29;18.20;;;13.13;;
52618;SDS011;38513;53.234;6.568;2023-08-06T06:00:56;16.63;;;12.63;;
52618;SDS011;38513;53.234;6.568;2023-08-06T06:03:24;19.17;;;12.25;;
52618;SDS011;38513;53.234;6.568;2023-08-06T06:05:50;16.63;;;12.00;;
52618;SDS011;38513;53.234;6.568;2023-08-06T06:08:17;17.23;;;11.52;;
52618;SDS011;38513;53.234;6.568;2023-08-06T06:10:43;15.65;;;10.50;;
52618;SDS011;38513;53.234;6.568;2023-08-06T06:13:12;12.38;;;9.27;;
52618;SDS011;38513;53.234;6.568;2023-08-06T06:15:38;13.55;;;10.30;;
52618;SDS011;38513;53.234;6.568;2023-08-06T06:18:04;12.80;;;9.97;;
52618;SDS011;38513;53.234;6.568;2023-08-06T06:20:31;13.93;;;9.68;;
52618;SDS011;38513;53.234;6.568;2023-08-06T06:22:58;12.93;;;9.82;;
52618;SDS011;38513;53.234;6.568;2023-08-06T06:25:27;13.73;;;9.48;;
52618;SDS011;38513;53.234;6.568;2023-08-06T06:27:53;12.82;;;8.68;;
52618;SDS011;38513;53.234;6.568;2023-08-06T06:30:21;11.60;;;8.47;;
52618;SDS011;38513;53.234;6.568;2023-08-06T06:32:47;11.13;;;8.35;;
52618;SDS011;38513;53.234;6.568;2023-08-06T06:35:14;11.38;;;8.27;;
52618;SDS011;38513;53.234;6.568;2023-08-06T06:37:42;12.07;;;8.10;;
52618;SDS011;38513;53.234;6.568;2023-08-06T06:40:09;12.40;;;8.10;;
52618;SDS011;38513;53.234;6.568;2023-08-06T06:42:35;10.95;;;7.90;;
52618;SDS011;38513;53.234;6.568;2023-08-06T06:45:04;11.38;;;8.00;;
52618;SDS011;38513;53.234;6.568;2023-08-06T06:47:30;10.90;;;7.35;;
52618;SDS011;38513;53.234;6.568;2023-08-06T06:49:56;10.82;;;7.40;;
52618;SDS011;38513;53.234;6.568;2023-08-06T06:52:23;10.98;;;7.22;;
52618;SDS011;38513;53.234;6.568;2023-08-06T06:54:49;9.55;;;6.88;;
52618;SDS011;38513;53.234;6.568;2023-08-06T06:57:15;10.95;;;7.20;;
52618;SDS011;38513;53.234;6.568;2023-08-06T06:59:41;9.33;;;6.57;;
52618;SDS011;38513;53.234;6.568;2023-08-06T07:02:07;11.13;;;6.75;;
52618;SDS011;38513;53.234;6.568;2023-08-06T07:04:36;9.68;;;6.60;;
52618;SDS011;38513;53.234;6.568;2023-08-06T07:07:05;10.52;;;7.30;;
52618;SDS011;38513;53.234;6.568;2023-08-06T07:09:31;9.27;;;6.67;;
52618;SDS011;38513;53.234;6.568;2023-08-06T07:11:58;9.48;;;6.90;;
52618;SDS011;38513;53.234;6.568;2023-08-06T07:14:25;10.82;;;6.93;;
52618;SDS011;38513;53.234;6.568;2023-08-06T07:16:51;9.30;;;6.72;;
52618;SDS011;38513;53.234;6.568;2023-08-06T07:19:24;9.23;;;6.32;;
52618;SDS011;38513;53.234;6.568;2023-08-06T07:21:53;9.23;;;6.50;;
52618;SDS011;38513;53.234;6.568;2023-08-06T07:24:21;11.90;;;6.55;;
52618;SDS011;38513;53.234;6.568;2023-08-06T07:26:47;10.13;;;6.20;;
52618;SDS011;38513;53.234;6.568;2023-08-06T07:29:15;11.20;;;6.63;;
52618;SDS011;38513;53.234;6.568;2023-08-06T07:31:46;8.68;;;6.03;;
52618;SDS011;38513;53.234;6.568;2023-08-06T07:34:13;9.27;;;5.95;;
52618;SDS011;38513;53.234;6.568;2023-08-06T07:36:39;8.53;;;5.53;;
52618;SDS011;38513;53.234;6.568;2023-08-06T07:39:08;9.27;;;5.95;;
52618;SDS011;38513;53.234;6.568;2023-08-06T07:41:44;8.50;;;6.00;;
52618;SDS011;38513;53.234;6.568;2023-08-06T07:44:13;7.63;;;5.10;;
52618;SDS011;38513;53.234;6.568;2023-08-06T07:46:42;8.18;;;5.15;;
52618;SDS011;38513;53.234;6.568;2023-08-06T07:49:09;7.78;;;5.00;;
52618;SDS011;38513;53.234;6.568;2023-08-06T07:51:53;9.30;;;5.13;;
52618;SDS011;38513;53.234;6.568;2023-08-06T07:54:23;8.32;;;4.60;;
52618;SDS011;38513;53.234;6.568;2023-08-06T07:56:50;7.97;;;4.65;;
52618;SDS011;38513;53.234;6.568;2023-08-06T07:59:19;7.50;;;4.55;;
52618;SDS011;38513;53.234;6.568;2023-08-06T08:01:51;6.80;;;4.40;;
52618;SDS011;38513;53.234;6.568;2023-08-06T08:04:40;6.63;;;4.13;;
52618;SDS011;38513;53.234;6.568;2023-08-06T08:07:06;7.18;;;4.70;;
52618;SDS011;38513;53.234;6.568;2023-08-06T08:09:34;7.30;;;4.22;;
52618;SDS011;38513;53.234;6.568;2023-08-06T08:12:01;6.57;;;4.28;;
52618;SDS011;38513;53.234;6.568;2023-08-06T08:14:28;6.75;;;4.10;;
52618;SDS011;38513;53.234;6.568;2023-08-06T08:16:54;12.40;;;8.93;;
52618;SDS011;38513;53.234;6.568;2023-08-06T08:19:20;8.60;;;4.60;;
52618;SDS011;38513;53.234;6.568;2023-08-06T08:21:49;8.32;;;4.10;;
52618;SDS011;38513;53.234;6.568;2023-08-06T08:24:18;7.28;;;4.32;;
52618;SDS011;38513;53.234;6.568;2023-08-06T08:26:45;7.35;;;4.35;;
52618;SDS011;38513;53.234;6.568;2023-08-06T08:29:11;7.95;;;4.00;;
52618;SDS011;38513;53.234;6.568;2023-08-06T08:31:37;7.53;;;4.03;;
52618;SDS011;38513;53.234;6.568;2023-08-06T08:34:07;6.78;;;4.50;;
52618;SDS011;38513;53.234;6.568;2023-08-06T08:36:34;6.75;;;4.10;;
52618;SDS011;38513;53.234;6.568;2023-08-06T08:39:00;6.85;;;4.10;;
52618;SDS011;38513;53.234;6.568;2023-08-06T08:41:30;6.60;;;3.60;;
52618;SDS011;38513;53.234;6.568;2023-08-06T08:43:58;6.97;;;3.42;;
52618;SDS011;38513;53.234;6.568;2023-08-06T08:46:27;6.90;;;3.78;;
52618;SDS011;38513;53.234;6.568;2023-08-06T08:48:57;7.57;;;3.80;;
52618;SDS011;38513;53.234;6.568;2023-08-06T08:51:25;6.45;;;3.13;;
52618;SDS011;38513;53.234;6.568;2023-08-06T08:53:53;6.65;;;3.22;;
52618;SDS011;38513;53.234;6.568;2023-08-06T08:56:31;6.28;;;3.35;;
52618;SDS011;38513;53.234;6.568;2023-08-06T08:58:58;6.57;;;3.20;;
52618;SDS011;38513;53.234;6.568;2023-08-06T09:01:25;7.07;;;3.20;;
52618;SDS011;38513;53.234;6.568;2023-08-06T09:03:51;5.53;;;2.60;;
52618;SDS011;38513;53.234;6.568;2023-08-06T09:06:21;4.93;;;2.70;;
52618;SDS011;38513;53.234;6.568;2023-08-06T09:08:55;7.55;;;3.15;;
52618;SDS011;38513;53.234;6.568;2023-08-06T09:11:25;6.07;;;2.85;;
52618;SDS011;38513;53.234;6.568;2023-08-06T09:13:52;7.40;;;2.70;;
52618;SDS011;38513;53.234;6.568;2023-08-06T09:16:47;6.55;;;2.78;;
52618;SDS011;38513;53.234;6.568;2023-08-06T09:19:34;5.47;;;2.70;;
52618;SDS011;38513;53.234;6.568;2023-08-06T09:22:11;5.85;;;2.22;;
52618;SDS011;38513;53.234;6.568;2023-08-06T09:24:43;5.00;;;2.30;;
52618;SDS011;38513;53.234;6.568;2023-08-06T09:27:12;6.95;;;2.28;;
52618;SDS011;38513;53.234;6.568;2023-08-06T09:29:42;6.15;;;2.40;;
52618;SDS011;38513;53.234;6.568;2023-08-06T09:32:11;4.80;;;2.28;;
52618;SDS011;38513;53.234;6.568;2023-08-06T09:34:46;5.80;;;2.45;;
52618;SDS011;38513;53.234;6.568;2023-08-06T09:37:22;5.68;;;2.45;;
52618;SDS011;38513;53.234;6.568;2023-08-06T09:39:54;5.80;;;2.28;;
52618;SDS011;38513;53.234;6.568;2023-08-06T09:42:20;5.85;;;2.30;;
52618;SDS011;38513;53.234;6.568;2023-08-06T09:47:56;5.73;;;2.30;;
52618;SDS011;38513;53.234;6.568;2023-08-06T09:50:23;4.55;;;2.10;;
52618;SDS011;38513;53.234;6.568;2023-08-06T09:52:54;5.53;;;2.33;;
52618;SDS011;38513;53.234;6.568;2023-08-06T09:55:21;5.03;;;1.95;;
52618;SDS011;38513;53.234;6.568;2023-08-06T09:57:50;4.90;;;1.95;;
52618;SDS011;38513;53.234;6.568;2023-08-06T10:00:16;7.35;;;2.20;;
52618;SDS011;38513;53.234;6.568;2023-08-06T10:02:43;4.30;;;1.83;;
52618;SDS011;38513;53.234;6.568;2023-08-06T10:05:12;5.90;;;1.85;;
52618;SDS011;38513;53.234;6.568;2023-08-06T10:07:44;4.38;;;1.75;;
52618;SDS011;38513;53.234;6.568;2023-08-06T10:10:11;5.07;;;2.05;;
52618;SDS011;38513;53.234;6.568;2023-08-06T10:12:46;5.63;;;2.10;;
52618;SDS011;38513;53.234;6.568;2023-08-06T10:15:13;5.18;;;1.90;;
52618;SDS011;38513;53.234;6.568;2023-08-06T10:17:40;4.70;;;2.10;;
52618;SDS011;38513;53.234;6.568;2023-08-06T10:20:08;5.70;;;2.28;;
52618;SDS011;38513;53.234;6.568;2023-08-06T10:22:41;7.10;;;2.00;;
52618;SDS011;38513;53.234;6.568;2023-08-06T10:25:10;6.22;;;2.40;;
52618;SDS011;38513;53.234;6.568;2023-08-06T10:27:40;5.13;;;2.20;;
52618;SDS011;38513;53.234;6.568;2023-08-06T10:30:22;6.07;;;2.08;;
52618;SDS011;38513;53.234;6.568;2023-08-06T10:32:51;5.20;;;2.00;;
52618;SDS011;38513;53.234;6.568;2023-08-06T10:38:07;4.80;;;2.13;;
52618;SDS011;38513;53.234;6.568;2023-08-06T10:40:35;6.60;;;2.20;;
52618;SDS011;38513;53.234;6.568;2023-08-06T10:43:02;6.28;;;2.20;;
52618;SDS011;38513;53.234;6.568;2023-08-06T10:45:29;5.03;;;2.40;;
52618;SDS011;38513;53.234;6.568;2023-08-06T10:48:04;5.05;;;2.15;;
52618;SDS011;38513;53.234;6.568;2023-08-06T10:50:30;5.35;;;1.90;;
52618;SDS011;38513;53.234;6.568;2023-08-06T10:52:57;5.70;;;2.00;;
52618;SDS011;38513;53.234;6.568;2023-08-06T10:55:39;5.07;;;2.13;;
52618;SDS011;38513;53.234;6.568;2023-08-06T10:58:08;4.78;;;1.92;;
52618;SDS011;38513;53.234;6.568;2023-08-06T11:00:46;4.80;;;2.00;;
52618;SDS011;38513;53.234;6.568;2023-08-06T11:03:12;4.45;;;1.60;;
52618;SDS011;38513;53.234;6.568;2023-08-06T11:05:52;5.53;;;2.00;;
52618;SDS011;38513;53.234;6.568;2023-08-06T11:08:28;5.25;;;1.88;;
52618;SDS011;38513;53.234;6.568;2023-08-06T11:11:07;4.82;;;1.80;;
52618;SDS011;38513;53.234;6.568;2023-08-06T11:13:40;4.30;;;1.90;;
52618;SDS011;38513;53.234;6.568;2023-08-06T11:16:06;4.90;;;2.00;;
52618;SDS011;38513;53.234;6.568;2023-08-06T11:18:32;5.30;;;2.00;;
52618;SDS011;38513;53.234;6.568;2023-08-06T11:20:59;4.35;;;1.83;;
52618;SDS011;38513;53.234;6.568;2023-08-06T11:23:26;4.50;;;1.90;;
52618;SDS011;38513;53.234;6.568;2023-08-06T11:25:54;5.22;;;2.00;;
52618;SDS011;38513;53.234;6.568;2023-08-06T11:28:20;4.88;;;2.00;;
52618;SDS011;38513;53.234;6.568;2023-08-06T11:30:49;4.82;;;2.10;;
52618;SDS011;38513;53.234;6.568;2023-08-06T11:33:22;6.18;;;2.08;;
52618;SDS011;38513;53.234;6.568;2023-08-06T11:35:51;5.63;;;1.95;;
52618;SDS011;38513;53.234;6.568;2023-08-06T11:38:17;4.72;;;1.80;;
52618;SDS011;38513;53.234;6.568;2023-08-06T11:40:50;4.38;;;1.90;;
52618;SDS011;38513;53.234;6.568;2023-08-06T11:43:17;4.80;;;1.90;;
52618;SDS011;38513;53.234;6.568;2023-08-06T11:45:51;4.78;;;2.00;;
52618;SDS011;38513;53.234;6.568;2023-08-06T11:48:19;5.57;;;2.00;;
52618;SDS011;38513;53.234;6.568;2023-08-06T11:50:45;4.50;;;1.98;;
52618;SDS011;38513;53.234;6.568;2023-08-06T11:53:12;4.97;;;2.17;;
52618;SDS011;38513;53.234;6.568;2023-08-06T11:55:39;4.75;;;2.00;;
52618;SDS011;38513;53.234;6.568;2023-08-06T11:58:09;4.63;;;2.20;;
52618;SDS011;38513;53.234;6.568;2023-08-06T12:00:36;5.13;;;2.28;;
52618;SDS011;38513;53.234;6.568;2023-08-06T12:03:04;4.37;;;1.80;;
52618;SDS011;38513;53.234;6.568;2023-08-06T12:05:30;5.45;;;2.20;;
52618;SDS011;38513;53.234;6.568;2023-08-06T12:08:04;6.13;;;2.23;;
52618;SDS011;38513;53.234;6.568;2023-08-06T12:10:31;5.22;;;2.10;;
52618;SDS011;38513;53.234;6.568;2023-08-06T12:12:57;5.93;;;2.20;;
52618;SDS011;38513;53.234;6.568;2023-08-06T12:15:26;5.35;;;1.95;;
52618;SDS011;38513;53.234;6.568;2023-08-06T12:17:52;5.45;;;2.00;;
52618;SDS011;38513;53.234;6.568;2023-08-06T12:20:18;6.22;;;2.15;;
52618;SDS011;38513;53.234;6.568;2023-08-06T12:22:55;4.68;;;1.95;;
52618;SDS011;38513;53.234;6.568;2023-08-06T12:25:21;5.40;;;2.00;;
52618;SDS011;38513;53.234;6.568;2023-08-06T12:27:52;5.97;;;2.08;;
52618;SDS011;38513;53.234;6.568;2023-08-06T12:30:18;5.88;;;2.20;;
52618;SDS011;38513;53.234;6.568;2023-08-06T12:32:45;4.95;;;1.92;;
52618;SDS011;38513;53.234;6.568;2023-08-06T12:35:11;4.90;;;1.85;;
52618;SDS011;38513;53.234;6.568;2023-08-06T12:37:39;4.97;;;2.20;;
52618;SDS011;38513;53.234;6.568;2023-08-06T12:40:05;5.00;;;1.80;;
52618;SDS011;38513;53.234;6.568;2023-08-06T12:42:31;5.47;;;1.90;;
52618;SDS011;38513;53.234;6.568;2023-08-06T12:45:34;5.20;;;2.00;;
52618;SDS011;38513;53.234;6.568;2023-08-06T12:48:00;4.75;;;1.92;;
52618;SDS011;38513;53.234;6.568;2023-08-06T12:50:27;4.75;;;2.00;;
52618;SDS011;38513;53.234;6.568;2023-08-06T12:52:53;5.82;;;1.90;;
52618;SDS011;38513;53.234;6.568;2023-08-06T12:55:19;7.55;;;2.17;;
52618;SDS011;38513;53.234;6.568;2023-08-06T12:57:46;5.93;;;2.40;;
52618;SDS011;38513;53.234;6.568;2023-08-06T13:00:12;5.47;;;2.20;;
52618;SDS011;38513;53.234;6.568;2023-08-06T13:02:38;5.50;;;2.00;;
52618;SDS011;38513;53.234;6.568;2023-08-06T13:05:04;4.57;;;1.90;;
52618;SDS011;38513;53.234;6.568;2023-08-06T13:07:31;6.15;;;2.00;;
52618;SDS011;38513;53.234;6.568;2023-08-06T13:10:00;6.40;;;2.10;;
52618;SDS011;38513;53.234;6.568;2023-08-06T13:12:33;4.87;;;2.10;;
52618;SDS011;38513;53.234;6.568;2023-08-06T13:15:03;5.28;;;1.98;;
52618;SDS011;38513;53.234;6.568;2023-08-06T13:17:29;3.88;;;1.70;;
52618;SDS011;38513;53.234;6.568;2023-08-06T13:19:55;5.23;;;2.10;;
52618;SDS011;38513;53.234;6.568;2023-08-06T13:22:21;5.28;;;2.03;;
52618;SDS011;38513;53.234;6.568;2023-08-06T13:24:47;4.07;;;1.85;;
52618;SDS011;38513;53.234;6.568;2023-08-06T13:27:13;4.53;;;2.00;;
52618;SDS011;38513;53.234;6.568;2023-08-06T13:29:51;5.50;;;2.00;;
52618;SDS011;38513;53.234;6.568;2023-08-06T13:32:33;5.00;;;2.30;;
52618;SDS011;38513;53.234;6.568;2023-08-06T13:35:25;4.40;;;1.90;;
52618;SDS011;38513;53.234;6.568;2023-08-06T13:37:51;4.90;;;1.88;;
52618;SDS011;38513;53.234;6.568;2023-08-06T13:40:19;5.88;;;1.80;;
52618;SDS011;38513;53.234;6.568;2023-08-06T13:42:51;4.80;;;2.27;;
52618;SDS011;38513;53.234;6.568;2023-08-06T13:45:17;4.93;;;1.90;;
52618;SDS011;38513;53.234;6.568;2023-08-06T13:47:43;4.60;;;1.90;;
52618;SDS011;38513;53.234;6.568;2023-08-06T13:50:10;4.72;;;2.10;;
52618;SDS011;38513;53.234;6.568;2023-08-06T13:52:36;4.90;;;1.75;;
52618;SDS011;38513;53.234;6.568;2023-08-06T13:55:02;5.25;;;1.90;;
52618;SDS011;38513;53.234;6.568;2023-08-06T13:57:29;4.97;;;2.20;;
52618;SDS011;38513;53.234;6.568;2023-08-06T13:59:55;5.63;;;1.90;;
52618;SDS011;38513;53.234;6.568;2023-08-06T14:02:22;4.80;;;1.75;;
52618;SDS011;38513;53.234;6.568;2023-08-06T14:04:48;4.07;;;1.70;;
52618;SDS011;38513;53.234;6.568;2023-08-06T14:07:14;3.83;;;1.88;;
52618;SDS011;38513;53.234;6.568;2023-08-06T14:09:40;4.13;;;1.80;;
52618;SDS011;38513;53.234;6.568;2023-08-06T14:12:09;4.78;;;1.90;;
52618;SDS011;38513;53.234;6.568;2023-08-06T14:14:35;4.97;;;1.70;;
52618;SDS011;38513;53.234;6.568;2023-08-06T14:17:02;4.22;;;1.85;;
52618;SDS011;38513;53.234;6.568;2023-08-06T14:19:28;4.90;;;1.70;;
52618;SDS011;38513;53.234;6.568;2023-08-06T14:21:58;4.45;;;1.60;;
52618;SDS011;38513;53.234;6.568;2023-08-06T14:24:31;4.80;;;1.65;;
52618;SDS011;38513;53.234;6.568;2023-08-06T14:27:01;4.30;;;1.80;;
52618;SDS011;38513;53.234;6.568;2023-08-06T14:29:35;4.55;;;1.80;;
52618;SDS011;38513;53.234;6.568;2023-08-06T14:32:01;4.25;;;1.77;;
52618;SDS011;38513;53.234;6.568;2023-08-06T14:34:28;4.93;;;1.60;;
52618;SDS011;38513;53.234;6.568;2023-08-06T14:36:54;5.95;;;2.00;;
52618;SDS011;38513;53.234;6.568;2023-08-06T14:39:20;4.30;;;1.63;;
52618;SDS011;38513;53.234;6.568;2023-08-06T14:41:46;3.67;;;1.55;;
52618;SDS011;38513;53.234;6.568;2023-08-06T14:44:13;4.72;;;1.70;;
52618;SDS011;38513;53.234;6.568;2023-08-06T14:46:39;4.40;;;1.60;;
52618;SDS011;38513;53.234;6.568;2023-08-06T14:49:05;4.30;;;1.70;;
52618;SDS011;38513;53.234;6.568;2023-08-06T14:51:31;4.00;;;1.65;;